Time;durP1;ratioP1;P1;durP2;ratioP2;P2;SDS_P1;SDS_P2;PMS_P1;PMS_P2;Temp;Humidity;BMP_temperature;BMP_pressure;BME280_temperature;BME280_humidity;BME280_pressure;Samples;Min_cycle;Max_cycle;Signal;HPM_P1;HPM_P2
2023/05/29 00:00:13;;;;;;;7.68;4.80;;;;;;;15.86;62.18;94759.06;5089266;28;20030;-75
2023/05/29 00:02:39;;;;;;;6.97;4.95;;;;;;;15.84;62.10;94763.56;5089106;28;20498;-75
2023/05/29 00:05:05;;;;;;;7.05;5.10;;;;;;;15.79;62.36;94755.91;5086370;28;20068;-75
2023/05/29 00:07:34;;;;;;;9.63;4.72;;;;;;;15.78;62.31;94762.72;5086176;28;20027;-76
2023/05/29 00:10:00;;;;;;;7.85;4.63;;;;;;;15.74;62.12;94765.66;5086858;28;20205;-75
2023/05/29 00:12:26;;;;;;;7.30;4.75;;;;;;;15.73;62.37;94760.59;5068806;28;20527;-76
2023/05/29 00:14:51;;;;;;;5.13;4.15;;;;;;;15.71;62.47;94757.50;5088009;28;20110;-76
2023/05/29 00:17:20;;;;;;;7.97;5.38;;;;;;;15.69;62.48;94765.53;5085506;28;20538;-76
2023/05/29 00:19:46;;;;;;;10.80;4.90;;;;;;;15.68;62.56;94775.09;5086460;28;20040;-77
2023/05/29 00:22:12;;;;;;;9.13;4.82;;;;;;;15.63;62.75;94759.88;5052369;28;20028;-76
2023/05/29 00:24:38;;;;;;;5.88;4.28;;;;;;;15.60;62.90;94769.13;5087300;28;20034;-76
2023/05/29 00:27:04;;;;;;;5.60;4.40;;;;;;;15.58;63.11;94761.28;5086660;28;20115;-75
2023/05/29 00:29:30;;;;;;;9.77;5.55;;;;;;;15.57;63.14;94762.53;5086928;28;20024;-76
2023/05/29 00:31:56;;;;;;;8.13;4.55;;;;;;;15.57;63.44;94765.28;5070180;28;20593;-76
2023/05/29 00:34:23;;;;;;;8.75;4.88;;;;;;;15.55;63.34;94765.00;5085129;28;20457;-75
2023/05/29 00:36:48;;;;;;;6.57;4.18;;;;;;;15.53;63.58;94758.38;5086166;28;20414;-75
2023/05/29 00:39:14;;;;;;;6.55;4.38;;;;;;;15.55;63.61;94756.69;5086999;28;20063;-76
2023/05/29 00:41:39;;;;;;;7.10;4.72;;;;;;;15.53;63.42;94756.38;5085705;28;20035;-76
2023/05/29 00:44:05;;;;;;;7.50;4.60;;;;;;;15.55;63.31;94759.47;5069219;28;20028;-75
2023/05/29 00:46:31;;;;;;;8.65;4.50;;;;;;;15.54;63.56;94762.69;5096138;28;20267;-76
2023/05/29 00:48:57;;;;;;;6.13;4.35;;;;;;;15.52;63.65;94763.16;5076466;28;20092;-75
2023/05/29 00:51:23;;;;;;;7.10;4.30;;;;;;;15.46;63.34;94756.75;5072142;28;20470;-74
2023/05/29 00:53:52;;;;;;;7.30;4.60;;;;;;;15.46;63.32;94756.00;5069209;28;20472;-75
2023/05/29 00:56:18;;;;;;;6.47;4.03;;;;;;;15.46;63.15;94759.53;5089224;28;20028;-75
2023/05/29 00:58:43;;;;;;;7.03;5.15;;;;;;;15.47;63.31;94761.06;5085645;28;20421;-75
2023/05/29 01:01:10;;;;;;;6.18;4.32;;;;;;;15.47;63.21;94752.75;5085562;28;20112;-77
2023/05/29 01:03:36;;;;;;;9.32;4.05;;;;;;;15.44;62.96;94745.38;5068228;28;20024;-76
2023/05/29 01:06:03;;;;;;;6.82;4.47;;;;;;;15.46;62.86;94744.91;5069045;28;20458;-76
2023/05/29 01:08:29;;;;;;;6.03;4.85;;;;;;;15.42;63.13;94742.31;5051238;28;20517;-75
2023/05/29 01:11:01;;;;;;;5.88;4.07;;;;;;;15.39;63.16;94746.03;5085923;28;20099;-75
2023/05/29 01:13:29;;;;;;;8.53;4.30;;;;;;;15.37;62.96;94746.53;5067748;28;20414;-75
2023/05/29 01:16:22;;;;;;;10.10;4.80;;;;;;;15.32;63.17;94755.47;5085372;28;20042;-76
2023/05/29 01:18:59;;;;;;;8.48;5.05;;;;;;;15.28;63.11;94748.56;5047224;28;20082;-76
2023/05/29 01:22:02;;;;;;;5.85;4.32;;;;;;;15.25;63.36;94750.28;5067465;28;20032;-74
2023/05/29 01:24:43;;;;;;;5.78;4.10;;;;;;;15.22;63.57;94756.00;5054954;28;20044;-75
2023/05/29 01:27:16;;;;;;;8.68;4.40;;;;;;;15.18;63.39;94763.72;5068257;28;20028;-75
2023/05/29 01:29:42;;;;;;;6.60;4.67;;;;;;;15.14;63.38;94763.91;5084806;28;20028;-76
2023/05/29 01:32:09;;;;;;;7.45;4.32;;;;;;;15.12;63.11;94769.13;5068673;28;20028;-76
2023/05/29 01:34:34;;;;;;;9.43;4.22;;;;;;;15.09;63.42;94765.31;5067310;28;20032;-76
2023/05/29 01:37:00;;;;;;;6.75;4.00;;;;;;;15.08;63.39;94763.78;5068183;28;20031;-76
2023/05/29 01:39:26;;;;;;;6.18;3.80;;;;;;;15.04;63.29;94754.88;5067218;28;20384;-75
2023/05/29 01:41:52;;;;;;;7.45;4.35;;;;;;;15.03;63.44;94747.81;5067901;28;20020;-76
2023/05/29 01:44:18;;;;;;;5.88;4.22;;;;;;;15.02;63.55;94751.03;5067029;28;20032;-77
2023/05/29 01:46:45;;;;;;;7.15;4.40;;;;;;;15.04;63.41;94751.34;5084451;28;20032;-75
2023/05/29 01:49:12;;;;;;;6.38;4.20;;;;;;;15.04;63.75;94748.59;5084815;28;20031;-75
2023/05/29 01:51:40;;;;;;;6.10;4.38;;;;;;;15.01;63.44;94747.50;5087190;28;20068;-75
2023/05/29 01:54:08;;;;;;;7.32;4.78;;;;;;;15.06;63.61;94755.16;5089446;28;20055;-75
2023/05/29 01:56:34;;;;;;;8.75;4.90;;;;;;;15.07;63.82;94750.41;5066932;28;20044;-76
2023/05/29 01:59:02;;;;;;;6.10;4.40;;;;;;;14.95;63.59;94727.25;5067828;28;20048;-76
2023/05/29 02:01:30;;;;;;;8.55;4.45;;;;;;;15.10;63.55;94744.69;5084027;28;20089;-76
2023/05/29 02:03:57;;;;;;;8.15;4.90;;;;;;;15.10;63.47;94750.22;5085042;28;20076;-76
2023/05/29 02:06:22;;;;;;;9.80;5.15;;;;;;;15.08;63.45;94741.63;5084748;28;20106;-76
2023/05/29 02:08:47;;;;;;;8.32;4.80;;;;;;;15.09;63.59;94751.47;5066859;28;20539;-75
2023/05/29 02:11:13;;;;;;;7.32;4.93;;;;;;;15.12;63.77;94744.22;5084994;28;20023;-75
2023/05/29 02:13:38;;;;;;;7.57;5.38;;;;;;;15.09;64.06;94743.16;5049535;28;20471;-75
2023/05/29 02:16:04;;;;;;;8.13;5.38;;;;;;;15.10;63.97;94739.16;5067358;28;20520;-76
2023/05/29 02:18:31;;;;;;;9.88;4.93;;;;;;;15.14;63.86;94737.00;5083732;28;20464;-77
2023/05/29 02:20:57;;;;;;;8.73;4.97;;;;;;;15.16;63.79;94747.59;5083997;28;20457;-77
2023/05/29 02:23:22;;;;;;;7.38;4.88;;;;;;;15.16;63.64;94736.50;5050268;28;20039;-76
2023/05/29 02:25:48;;;;;;;7.78;5.25;;;;;;;15.15;63.42;94743.28;5066725;28;20165;-76
2023/05/29 02:28:14;;;;;;;9.40;5.47;;;;;;;15.17;63.75;94742.81;5085657;28;20387;-76
2023/05/29 02:30:39;;;;;;;7.53;4.55;;;;;;;15.17;63.55;94740.03;5083127;28;20479;-77
2023/05/29 02:33:10;;;;;;;8.73;4.63;;;;;;;15.18;63.53;94739.56;5083849;28;20132;-76
2023/05/29 02:35:35;;;;;;;12.38;5.15;;;;;;;15.20;63.48;94744.66;5084638;28;20038;-76
2023/05/29 02:38:01;;;;;;;7.30;4.80;;;;;;;15.19;63.66;94751.41;5066936;28;20028;-76
2023/05/29 02:40:26;;;;;;;8.07;4.93;;;;;;;15.16;63.60;94747.59;5083424;28;20029;-77
2023/05/29 02:42:53;;;;;;;9.52;5.35;;;;;;;15.14;63.66;94750.81;5066377;28;20099;-78
2023/05/29 02:45:19;;;;;;;6.93;4.88;;;;;;;15.12;63.59;94747.75;5085408;28;20501;-77
2023/05/29 02:47:44;;;;;;;7.40;5.60;;;;;;;15.09;63.66;94748.69;5070020;28;20035;-75
2023/05/29 02:50:10;;;;;;;12.27;5.45;;;;;;;15.09;63.66;94762.53;5084987;28;20065;-75
2023/05/29 02:52:39;;;;;;;9.13;5.82;;;;;;;15.05;63.71;94741.81;5065889;28;20016;-76
2023/05/29 02:55:07;;;;;;;10.30;5.55;;;;;;;15.06;63.83;94743.34;5084146;28;20032;-76
2023/05/29 02:57:33;;;;;;;9.52;5.00;;;;;;;14.98;64.09;94740.16;5074410;28;20024;-76
2023/05/29 03:00:01;;;;;;;8.50;5.00;;;;;;;15.02;64.10;94739.97;5080547;28;20131;-76
2023/05/29 03:02:26;;;;;;;9.57;4.93;;;;;;;15.01;64.21;94741.97;5083512;28;20120;-76
2023/05/29 03:04:53;;;;;;;7.35;5.40;;;;;;;15.03;64.14;94747.81;5082660;28;20611;-78
2023/05/29 03:07:19;;;;;;;8.10;5.40;;;;;;;15.03;64.23;94745.06;5050605;28;20040;-76
2023/05/29 03:09:44;;;;;;;8.02;5.50;;;;;;;15.04;64.39;94746.56;5084494;28;20376;-76
2023/05/29 03:12:11;;;;;;;9.05;5.68;;;;;;;15.06;64.21;94744.09;5074324;28;20479;-78
2023/05/29 03:14:36;;;;;;;8.93;5.50;;;;;;;15.04;64.54;94740.28;5087195;28;20465;-77
2023/05/29 03:17:06;;;;;;;10.27;5.88;;;;;;;15.06;64.60;94752.41;5085411;28;20024;-76
2023/05/29 03:19:32;;;;;;;10.32;5.65;;;;;;;15.07;64.60;94755.94;5090058;28;20054;-77
2023/05/29 03:21:58;;;;;;;8.50;4.90;;;;;;;15.04;64.25;94749.34;5091202;28;20024;-75
2023/05/29 03:24:25;;;;;;;9.35;5.32;;;;;;;15.00;64.33;94745.97;5073195;28;20032;-75
2023/05/29 03:26:52;;;;;;;10.50;6.00;;;;;;;15.06;64.11;94746.88;5089690;28;20112;-76
2023/05/29 03:29:18;;;;;;;12.82;5.70;;;;;;;15.09;64.25;94754.25;5091925;28;20152;-77
2023/05/29 03:31:43;;;;;;;10.88;5.60;;;;;;;15.07;64.21;94751.16;5089016;28;20016;-76
2023/05/29 03:34:10;;;;;;;8.80;5.15;;;;;;;15.06;64.15;94746.09;5073111;28;20429;-76
2023/05/29 03:36:37;;;;;;;10.00;5.35;;;;;;;15.09;64.23;94756.25;5089410;28;20379;-76
2023/05/29 03:39:03;;;;;;;8.68;5.18;;;;;;;15.09;64.45;94759.78;5089697;28;20095;-76
2023/05/29 03:41:28;;;;;;;7.75;5.63;;;;;;;15.12;64.32;94771.91;5090224;28;20119;-76
2023/05/29 03:43:54;;;;;;;10.80;5.22;;;;;;;15.12;64.42;94767.13;5093040;28;20077;-76
2023/05/29 03:46:20;;;;;;;7.72;5.40;;;;;;;15.13;64.59;94767.88;5090009;28;20048;-75
2023/05/29 03:48:47;;;;;;;8.43;5.47;;;;;;;15.12;64.47;94780.97;5090346;28;20032;-76
2023/05/29 03:51:14;;;;;;;13.75;6.20;;;;;;;15.17;64.81;94776.03;5072644;28;20040;-77
2023/05/29 03:53:39;;;;;;;13.00;6.57;;;;;;;15.21;64.70;94787.72;5072399;28;20036;-75
2023/05/29 03:56:06;;;;;;;9.50;5.93;;;;;;;15.23;64.82;94782.44;5090818;28;20130;-75
2023/05/29 03:58:32;;;;;;;11.40;6.25;;;;;;;15.25;64.84;94791.03;5091071;28;20106;-75
2023/05/29 04:00:58;;;;;;;9.68;6.20;;;;;;;15.27;64.79;94786.59;5088899;28;20127;-75
2023/05/29 04:03:24;;;;;;;11.98;7.50;;;;;;;15.33;64.60;94792.25;5096477;28;20146;-76
2023/05/29 04:05:50;;;;;;;14.25;6.88;;;;;;;15.36;64.46;94792.03;5089110;28;20031;-76
2023/05/29 04:08:15;;;;;;;9.20;6.75;;;;;;;15.39;64.11;94793.88;5089923;28;20130;-76
2023/05/29 04:10:44;;;;;;;13.45;6.97;;;;;;;15.42;63.86;94797.72;5088697;28;20435;-76
2023/05/29 04:13:12;;;;;;;10.25;5.95;;;;;;;15.46;63.70;94803.06;5090671;28;20125;-76
2023/05/29 04:15:39;;;;;;;11.10;7.18;;;;;;;15.47;63.62;94813.69;5072449;28;20020;-74
2023/05/29 04:18:05;;;;;;;9.50;6.47;;;;;;;15.47;63.46;94804.59;5072284;28;20066;-77
2023/05/29 04:20:31;;;;;;;13.63;6.53;;;;;;;15.49;63.43;94805.69;5089728;28;20048;-76
2023/05/29 04:22:57;;;;;;;13.63;6.38;;;;;;;15.51;63.13;94810.75;5090265;28;20027;-76
2023/05/29 04:25:22;;;;;;;14.32;6.43;;;;;;;15.55;63.23;94814.13;5089884;28;20077;-75
2023/05/29 04:27:48;;;;;;;9.15;6.47;;;;;;;15.59;63.33;94815.44;5088811;28;20028;-75
2023/05/29 04:30:16;;;;;;;8.35;6.28;;;;;;;15.61;63.15;94809.44;5086072;28;20027;-76
2023/05/29 04:32:42;;;;;;;10.77;6.97;;;;;;;15.63;63.04;94807.75;5086034;28;20507;-75
2023/05/29 04:35:09;;;;;;;11.75;6.63;;;;;;;15.67;62.88;94796.50;5085632;28;20035;-76
2023/05/29 04:37:39;;;;;;;11.80;6.10;;;;;;;15.72;63.09;94801.41;5086846;28;20024;-76
2023/05/29 04:40:08;;;;;;;10.05;5.85;;;;;;;15.76;62.66;94801.19;5072456;28;20101;-76
2023/05/29 04:42:35;;;;;;;13.02;5.85;;;;;;;15.83;62.72;94818.25;5070141;28;20132;-75
2023/05/29 04:45:06;;;;;;;10.05;6.75;;;;;;;15.87;62.68;94813.25;5086760;28;20060;-77
2023/05/29 04:47:36;;;;;;;9.40;6.30;;;;;;;15.91;62.75;94822.16;5086781;28;20027;-77
2023/05/29 04:50:02;;;;;;;11.63;7.90;;;;;;;15.95;62.72;94821.22;5069265;28;20425;-76
2023/05/29 04:52:28;;;;;;;13.02;7.60;;;;;;;15.97;62.57;94815.97;5087443;28;20172;-76
2023/05/29 04:54:58;;;;;;;8.45;5.97;;;;;;;16.04;62.43;94830.22;5085893;28;20463;-76
2023/05/29 04:57:24;;;;;;;12.32;6.43;;;;;;;16.08;62.60;94824.50;5085525;28;20089;-76
2023/05/29 04:59:51;;;;;;;10.70;7.45;;;;;;;16.10;62.69;94833.88;5086099;28;20044;-77
2023/05/29 05:02:16;;;;;;;11.88;6.63;;;;;;;16.11;62.14;94820.75;5086325;28;20024;-76
2023/05/29 05:04:42;;;;;;;11.23;7.28;;;;;;;16.12;62.15;94828.63;5069123;28;20032;-76
2023/05/29 05:07:08;;;;;;;10.63;7.32;;;;;;;16.15;62.00;94832.44;5071576;28;20038;-76
2023/05/29 05:09:35;;;;;;;8.90;6.95;;;;;;;16.19;62.09;94841.34;5072842;28;20031;-76
2023/05/29 05:12:05;;;;;;;9.63;6.32;;;;;;;16.21;61.90;94836.09;5086678;28;20024;-76
2023/05/29 05:14:31;;;;;;;10.65;6.90;;;;;;;16.27;62.04;94845.28;5068352;28;20046;-76
2023/05/29 05:16:56;;;;;;;12.07;6.32;;;;;;;16.32;62.05;94858.47;5085597;28;20031;-76
2023/05/29 05:19:22;;;;;;;10.77;6.70;;;;;;;16.39;61.75;94849.00;5085958;28;20445;-76
2023/05/29 05:21:47;;;;;;;11.57;6.57;;;;;;;16.45;61.92;94863.75;5069083;28;20028;-77
2023/05/29 05:24:12;;;;;;;12.45;7.35;;;;;;;16.49;61.74;94850.47;5085857;28;20081;-76
2023/05/29 05:26:40;;;;;;;16.55;7.03;;;;;;;16.54;61.65;94854.59;5084965;28;20154;-77
2023/05/29 05:29:05;;;;;;;13.20;7.00;;;;;;;16.59;61.20;94845.59;5068143;28;20024;-76
2023/05/29 05:31:31;;;;;;;10.52;6.22;;;;;;;16.65;61.19;94847.22;5084915;28;20038;-76
2023/05/29 05:33:56;;;;;;;16.30;7.03;;;;;;;16.72;60.96;94860.75;5090561;28;20067;-77
2023/05/29 05:36:21;;;;;;;13.10;6.25;;;;;;;16.79;61.22;94859.59;5075093;28;20048;-77
2023/05/29 05:38:47;;;;;;;12.10;6.60;;;;;;;16.85;60.91;94862.44;5087302;28;20063;-76
2023/05/29 05:41:12;;;;;;;9.82;6.15;;;;;;;16.87;60.49;94857.97;5084204;28;20417;-76
2023/05/29 05:43:39;;;;;;;12.25;6.03;;;;;;;16.94;60.24;94862.34;5051591;28;20044;-77
2023/05/29 05:46:06;;;;;;;9.35;5.60;;;;;;;16.96;60.34;94860.63;5067647;28;20370;-77
2023/05/29 05:48:31;;;;;;;9.95;5.05;;;;;;;16.99;60.18;94867.25;5084518;28;20299;-76
2023/05/29 05:50:58;;;;;;;10.05;6.32;;;;;;;17.03;60.13;94867.03;5084331;28;20421;-76
2023/05/29 05:53:24;;;;;;;11.63;5.85;;;;;;;17.09;59.98;94863.13;5083935;28;20080;-76
2023/05/29 05:55:49;;;;;;;7.68;5.40;;;;;;;17.15;59.78;94857.66;5086238;28;20024;-76
2023/05/29 05:58:15;;;;;;;9.57;5.57;;;;;;;17.23;59.18;94858.78;5083972;28;20019;-76
2023/05/29 06:00:43;;;;;;;11.80;5.15;;;;;;;17.31;59.05;94859.88;5084938;28;20020;-76
2023/05/29 06:03:09;;;;;;;10.75;5.57;;;;;;;17.39;59.45;94858.25;5083351;28;20408;-75
2023/05/29 06:05:36;;;;;;;13.35;5.32;;;;;;;17.48;59.13;94862.91;5067491;28;20083;-74
2023/05/29 06:08:02;;;;;;;11.98;6.38;;;;;;;17.30;59.69;94858.38;5083777;28;20023;-75
2023/05/29 06:10:27;;;;;;;7.53;4.82;;;;;;;17.41;59.41;94855.75;5083725;28;20104;-75
2023/05/29 06:12:53;;;;;;;8.73;5.03;;;;;;;17.48;59.27;94863.66;5089529;28;20359;-75
2023/05/29 06:15:19;;;;;;;11.38;5.32;;;;;;;17.52;59.41;94858.69;5086742;28;20024;-75
2023/05/29 06:17:44;;;;;;;6.00;4.53;;;;;;;17.58;59.46;94858.75;5082360;28;20036;-74
2023/05/29 06:20:11;;;;;;;8.68;4.22;;;;;;;17.58;58.64;94861.53;5084342;28;20070;-75
2023/05/29 06:22:39;;;;;;;7.57;4.68;;;;;;;17.44;58.94;94867.94;5085559;28;20043;-77
2023/05/29 06:25:04;;;;;;;6.10;3.80;;;;;;;17.57;58.89;94864.81;5067035;28;20028;-74
2023/05/29 06:27:30;;;;;;;5.88;4.32;;;;;;;17.43;58.81;94858.03;5083728;28;20023;-75
2023/05/29 06:29:55;;;;;;;7.82;4.22;;;;;;;17.54;59.08;94872.09;5086743;28;20024;-75
2023/05/29 06:32:22;;;;;;;8.25;4.43;;;;;;;17.68;58.97;94868.50;5083925;28;20035;-74
2023/05/29 06:34:47;;;;;;;10.48;5.22;;;;;;;17.87;59.25;94873.81;5084306;28;20028;-73
2023/05/29 06:37:13;;;;;;;13.02;5.82;;;;;;;17.91;58.92;94871.59;5083235;28;20820;-74
2023/05/29 06:39:42;;;;;;;8.98;4.60;;;;;;;18.03;58.94;94867.72;5067433;28;20063;-74
2023/05/29 06:42:08;;;;;;;9.05;4.43;;;;;;;18.24;58.52;94874.81;5084641;28;20028;-74
2023/05/29 06:44:33;;;;;;;12.23;5.38;;;;;;;18.28;58.08;94866.97;5066847;28;20181;-74
2023/05/29 06:46:59;;;;;;;6.43;4.10;;;;;;;18.34;58.42;94872.59;5083570;28;20103;-74
2023/05/29 06:49:25;;;;;;;10.52;4.20;;;;;;;18.47;58.53;94877.81;5083326;28;20214;-73
2023/05/29 06:51:50;;;;;;;10.05;4.50;;;;;;;18.67;57.62;94869.44;5084972;28;20035;-74
2023/05/29 06:54:16;;;;;;;6.22;3.88;;;;;;;18.88;57.11;94867.38;5084488;28;20024;-74
2023/05/29 06:56:42;;;;;;;8.77;4.47;;;;;;;18.96;57.03;94876.78;5085380;28;20093;-74
2023/05/29 06:59:07;;;;;;;6.03;4.25;;;;;;;19.03;56.80;94870.00;5084236;28;20757;-72
2023/05/29 07:01:33;;;;;;;12.85;5.45;;;;;;;19.03;57.10;94867.22;5083657;28;20016;-74
2023/05/29 07:03:58;;;;;;;13.90;6.00;;;;;;;19.00;57.33;94866.19;5083153;28;20059;-74
2023/05/29 07:06:24;;;;;;;5.80;3.00;;;;;;;19.07;56.40;94864.97;5066473;28;20492;-73
2023/05/29 07:08:49;;;;;;;8.48;4.53;;;;;;;19.08;56.54;94864.47;5066600;28;20624;-74
2023/05/29 07:11:15;;;;;;;5.55;4.05;;;;;;;19.01;56.73;94878.88;5082728;28;20039;-73
2023/05/29 07:13:41;;;;;;;9.15;5.28;;;;;;;18.95;56.41;94874.50;5083065;28;20016;-74
2023/05/29 07:16:07;;;;;;;5.93;3.28;;;;;;;18.99;55.99;94866.69;5083993;28;20031;-73
2023/05/29 07:18:32;;;;;;;4.35;2.60;;;;;;;19.28;55.43;94865.66;5087747;28;20414;-74
2023/05/29 07:21:00;;;;;;;8.20;3.75;;;;;;;19.28;55.82;94882.38;5083924;28;20016;-72
2023/05/29 07:23:25;;;;;;;5.93;3.95;;;;;;;19.34;55.43;94872.78;5066627;28;20128;-74
2023/05/29 07:25:51;;;;;;;4.65;2.63;;;;;;;19.46;55.49;94870.09;5068530;28;20040;-75
2023/05/29 07:28:16;;;;;;;3.58;2.38;;;;;;;19.70;54.70;94858.59;5066350;28;20077;-74
2023/05/29 07:30:43;;;;;;;8.00;3.28;;;;;;;19.72;54.49;94865.19;5085153;28;20054;-74
2023/05/29 07:33:09;;;;;;;3.40;2.30;;;;;;;19.91;54.14;94859.97;5082988;28;20028;-74
2023/05/29 07:35:35;;;;;;;6.82;2.60;;;;;;;20.13;53.37;94865.66;5084756;28;20035;-74
2023/05/29 07:38:00;;;;;;;4.53;2.40;;;;;;;20.34;52.48;94866.22;5065467;28;20043;-74
2023/05/29 07:40:26;;;;;;;10.32;3.13;;;;;;;20.34;52.01;94860.63;5083632;28;20039;-75
2023/05/29 07:42:52;;;;;;;6.45;3.45;;;;;;;20.47;51.48;94867.81;5082940;28;20038;-74
2023/05/29 07:45:17;;;;;;;9.43;5.07;;;;;;;20.18;51.77;94872.50;5083356;28;20021;-74
2023/05/29 07:47:44;;;;;;;3.70;2.17;;;;;;;20.15;51.64;94873.53;5082807;28;20031;-73
2023/05/29 07:50:10;;;;;;;3.90;2.20;;;;;;;20.36;51.76;94860.16;5082580;28;20524;-73
2023/05/29 07:52:36;;;;;;;3.33;2.08;;;;;;;20.41;51.92;94860.16;5084620;28;20016;-73
2023/05/29 07:55:02;;;;;;;4.43;2.17;;;;;;;20.52;51.90;94858.69;5084166;28;20028;-74
2023/05/29 07:57:28;;;;;;;3.30;1.83;;;;;;;20.46;52.07;94857.91;5086454;28;20110;-72
2023/05/29 07:59:53;;;;;;;3.88;2.20;;;;;;;20.55;52.14;94855.66;5084149;28;20115;-73
2023/05/29 08:02:19;;;;;;;3.20;2.20;;;;;;;20.65;51.73;94865.31;5083111;28;20055;-74
2023/05/29 08:04:45;;;;;;;4.78;2.83;;;;;;;20.72;51.68;94857.72;5083395;28;20036;-75
2023/05/29 08:07:10;;;;;;;4.80;2.70;;;;;;;20.63;51.84;94861.50;5087702;28;20028;-75
2023/05/29 08:09:36;;;;;;;5.03;2.72;;;;;;;20.73;51.91;94865.59;5086639;28;20020;-73
2023/05/29 08:12:01;;;;;;;3.63;2.45;;;;;;;20.83;51.41;94863.31;5086786;28;20016;-74
2023/05/29 08:14:27;;;;;;;5.30;2.20;;;;;;;20.91;51.36;94862.31;5069920;28;20036;-74
2023/05/29 08:16:53;;;;;;;5.68;2.10;;;;;;;20.98;51.17;94860.28;5085533;28;20024;-73
2023/05/29 08:19:19;;;;;;;2.95;2.03;;;;;;;20.95;50.83;94864.84;5070947;28;20101;-74
2023/05/29 08:21:45;;;;;;;5.10;2.33;;;;;;;20.94;50.16;94868.94;5088686;28;20466;-75
2023/05/29 08:24:12;;;;;;;3.90;2.30;;;;;;;20.89;50.05;94859.25;5089928;28;20059;-73
2023/05/29 08:26:39;;;;;;;2.60;1.98;;;;;;;20.89;49.96;94864.84;5069949;28;20406;-74
2023/05/29 08:29:04;;;;;;;4.82;2.47;;;;;;;21.00;49.84;94866.13;5087264;28;20062;-73
2023/05/29 08:31:30;;;;;;;3.33;2.05;;;;;;;20.93;49.67;94865.38;5069640;28;20115;-73
2023/05/29 08:33:56;;;;;;;3.95;2.95;;;;;;;21.11;49.63;94866.13;5085600;28;20383;-73
2023/05/29 08:36:24;;;;;;;5.20;3.13;;;;;;;21.18;49.95;94862.81;5070097;28;20062;-74
2023/05/29 08:38:50;;;;;;;3.33;2.40;;;;;;;21.08;48.43;94859.53;5085663;28;20020;-73
2023/05/29 08:41:29;;;;;;;4.72;2.50;;;;;;;21.23;48.42;94862.06;5087655;28;20034;-72
2023/05/29 08:43:54;;;;;;;4.05;2.92;;;;;;;21.21;49.13;94859.75;5086184;28;20020;-72
2023/05/29 08:46:20;;;;;;;6.88;3.00;;;;;;;21.28;49.10;94858.50;5085821;28;20043;-72
2023/05/29 08:48:49;;;;;;;5.78;2.60;;;;;;;21.41;48.87;94860.81;5069415;28;20062;-73
2023/05/29 08:51:17;;;;;;;4.80;2.90;;;;;;;21.35;49.12;94855.22;5068869;28;20118;-72
2023/05/29 08:53:43;;;;;;;4.88;3.22;;;;;;;21.45;47.55;94844.53;5069666;28;20063;-73
2023/05/29 08:56:08;;;;;;;5.13;2.90;;;;;;;21.54;47.39;94849.09;5085265;28;20051;-75
2023/05/29 08:58:34;;;;;;;7.63;3.40;;;;;;;21.65;46.83;94846.28;5086012;28;20418;-71
2023/05/29 09:00:59;;;;;;;4.20;2.65;;;;;;;21.73;46.68;94839.66;5086910;28;20111;-74
2023/05/29 09:03:25;;;;;;;4.45;2.95;;;;;;;21.99;45.66;94835.75;5068701;28;20509;-77
2023/05/29 09:05:50;;;;;;;4.85;3.17;;;;;;;22.25;44.79;94841.78;5068811;28;20028;-76
2023/05/29 09:08:18;;;;;;;6.15;2.83;;;;;;;22.55;43.64;94841.09;5085878;28;20048;-75
2023/05/29 09:10:44;;;;;;;4.35;2.70;;;;;;;22.78;43.40;94833.31;5086292;28;20035;-75
2023/05/29 09:13:11;;;;;;;3.90;2.83;;;;;;;23.09;42.72;94825.72;5068116;28;20020;-77
2023/05/29 09:15:38;;;;;;;8.30;5.30;;;;;;;23.28;42.37;94824.56;5072401;28;20071;-74
2023/05/29 09:18:04;;;;;;;4.60;3.35;;;;;;;23.19;41.69;94829.72;5068450;28;20024;-74
2023/05/29 09:20:30;;;;;;;5.13;2.85;;;;;;;23.13;41.16;94826.22;5071603;28;20012;-74
2023/05/29 09:23:06;;;;;;;3.95;2.70;;;;;;;23.05;41.32;94828.81;5069367;28;20115;-76
2023/05/29 09:25:35;;;;;;;4.63;2.67;;;;;;;23.13;41.38;94829.00;5066433;28;20036;-75
2023/05/29 09:28:05;;;;;;;4.90;2.90;;;;;;;23.20;41.02;94815.19;5067876;28;20523;-75
2023/05/29 09:30:34;;;;;;;3.83;3.30;;;;;;;23.27;41.46;94819.44;5067426;28;20424;-76
2023/05/29 09:33:03;;;;;;;5.25;3.53;;;;;;;23.12;41.21;94811.44;5066473;28;20077;-76
2023/05/29 09:35:35;;;;;;;5.68;3.55;;;;;;;23.25;41.36;94811.56;5048013;28;20478;-78
2023/05/29 09:38:01;;;;;;;4.55;2.85;;;;;;;23.39;40.69;94806.84;5064560;28;20628;-77
2023/05/29 09:40:30;;;;;;;3.88;2.50;;;;;;;23.63;40.56;94796.94;5065021;28;20115;-78
2023/05/29 09:42:55;;;;;;;5.10;3.50;;;;;;;23.80;39.14;94791.91;5048064;28;20020;-78
2023/05/29 09:45:21;;;;;;;5.05;3.08;;;;;;;24.00;38.59;94788.59;5048673;28;20023;-81
2023/05/29 09:47:48;;;;;;;5.00;3.30;;;;;;;24.33;38.91;94784.59;5064684;28;20024;-78
2023/05/29 09:50:20;;;;;;;4.22;3.58;;;;;;;24.46;38.98;94781.13;5048527;28;20029;-78
2023/05/29 09:52:46;;;;;;;4.80;3.65;;;;;;;24.75;38.41;94781.47;5064657;28;20460;-78
2023/05/29 09:55:14;;;;;;;4.38;2.50;;;;;;;24.67;37.95;94786.97;5064105;28;20063;-75
2023/05/29 09:57:41;;;;;;;5.47;3.30;;;;;;;24.83;37.55;94785.16;5064511;28;20441;-74
2023/05/29 10:00:12;;;;;;;3.60;2.40;;;;;;;24.87;36.91;94780.75;5065335;28;20025;-73
2023/05/29 10:02:39;;;;;;;6.22;3.63;;;;;;;25.15;37.18;94788.75;5048773;28;20028;-74
2023/05/29 10:05:09;;;;;;;6.57;2.80;;;;;;;25.25;37.38;94788.38;5064639;28;20036;-73
2023/05/29 10:07:36;;;;;;;4.45;3.05;;;;;;;25.53;36.59;94783.00;5064689;28;20044;-73
2023/05/29 10:10:05;;;;;;;5.97;3.17;;;;;;;25.53;36.40;94768.16;5065854;28;20086;-72
2023/05/29 10:12:32;;;;;;;4.53;3.13;;;;;;;25.63;36.23;94774.88;5047563;28;20032;-74
2023/05/29 10:14:59;;;;;;;5.75;3.60;;;;;;;25.43;36.72;94771.41;5047505;28;20032;-73
2023/05/29 10:17:27;;;;;;;9.93;3.65;;;;;;;25.46;35.69;94783.63;5063418;28;20024;-72
2023/05/29 10:19:53;;;;;;;4.28;2.85;;;;;;;25.66;35.03;94779.44;5070655;28;20032;-74
2023/05/29 10:22:20;;;;;;;6.22;3.30;;;;;;;25.82;34.46;94772.00;5066026;28;20024;-75
2023/05/29 10:24:48;;;;;;;5.18;2.50;;;;;;;26.05;33.77;94763.84;5064774;28;20406;-75
2023/05/29 10:27:14;;;;;;;4.78;3.15;;;;;;;26.21;33.65;94771.94;5062781;28;20100;-75
2023/05/29 10:29:46;;;;;;;6.00;3.10;;;;;;;26.04;33.92;94773.59;5063719;28;20526;-75
2023/05/29 10:32:20;;;;;;;4.82;3.10;;;;;;;26.06;34.20;94757.66;5063831;28;20047;-74
2023/05/29 10:35:00;;;;;;;3.65;2.60;;;;;;;25.94;34.45;94767.66;5071410;28;20052;-74
2023/05/29 10:37:40;;;;;;;8.27;3.53;;;;;;;25.90;33.99;94770.03;5064372;28;20082;-74
2023/05/29 10:40:13;;;;;;;7.28;3.70;;;;;;;25.86;34.20;94763.97;5063319;28;20021;-74
2023/05/29 10:42:44;;;;;;;6.20;3.55;;;;;;;26.02;33.07;94762.09;5047487;28;20024;-74
2023/05/29 10:45:13;;;;;;;5.55;3.45;;;;;;;26.01;33.36;94766.97;5063359;28;20035;-74
2023/05/29 10:47:39;;;;;;;6.53;3.28;;;;;;;26.34;33.15;94765.53;5063439;28;20033;-75
2023/05/29 10:50:05;;;;;;;5.30;2.78;;;;;;;26.51;33.14;94765.19;5065541;28;20465;-74
2023/05/29 10:52:32;;;;;;;2.90;2.60;;;;;;;26.67;32.33;94758.41;5062349;28;20025;-74
2023/05/29 10:54:57;;;;;;;2.88;2.38;;;;;;;26.81;31.50;94747.06;5063950;28;20028;-74
2023/05/29 10:57:24;;;;;;;3.70;2.58;;;;;;;26.67;32.63;94738.66;5062724;28;20028;-75
2023/05/29 11:00:06;;;;;;;5.90;2.90;;;;;;;26.71;32.18;94727.03;5063351;28;20099;-74
2023/05/29 11:02:31;;;;;;;5.28;3.40;;;;;;;26.57;30.87;94737.63;5064444;28;20032;-74
2023/05/29 11:05:20;;;;;;;9.98;6.20;;;;;;;26.97;29.99;94734.63;5047892;28;20131;-74
2023/05/29 11:08:12;;;;;;;3.80;2.63;;;;;;;27.11;30.65;94732.50;5064254;28;20119;-74
2023/05/29 11:10:45;;;;;;;5.00;2.70;;;;;;;27.08;30.79;94731.53;5059339;28;20042;-73
2023/05/29 11:13:11;;;;;;;;;;;;;;;26.99;31.13;94729.16;5063484;28;20536;-74
2023/05/29 11:15:38;;;;;;;6.40;3.45;;;;;;;26.92;31.73;94732.69;5062975;28;19917;-73
2023/05/29 11:18:07;;;;;;;5.18;3.17;;;;;;;27.18;31.25;94726.94;5062900;28;20090;-73
2023/05/29 11:20:32;;;;;;;3.90;3.10;;;;;;;27.41;31.29;94726.31;5063426;28;20042;-72
2023/05/29 11:22:58;;;;;;;4.93;3.10;;;;;;;27.47;30.77;94724.88;5063996;28;20024;-73
2023/05/29 11:25:23;;;;;;;5.60;3.13;;;;;;;27.08;30.89;94708.97;5064608;28;20021;-73
2023/05/29 11:27:49;;;;;;;4.97;2.60;;;;;;;27.21;31.53;94717.34;5064440;28;20113;-74
2023/05/29 11:30:15;;;;;;;6.00;2.70;;;;;;;27.09;31.39;94718.19;5046393;28;20412;-73